Time;durP1;ratioP1;P1;durP2;ratioP2;P2;SDS_P1;SDS_P2;PMS_P1;PMS_P2;Temp;Humidity;BMP_temperature;BMP_pressure;BME280_temperature;BME280_humidity;BME280_pressure;Samples;Min_cycle;Max_cycle;Signal;HPM_P1;HPM_P2
2022/07/25 00:00:46;;;;;;;6.57;3.95;;;;;;;18.85;94.49;100973.34;1046977;28;20099;-85
2022/07/25 00:01:18;;;;;;;4.63;4.22;;;;;;;18.81;94.59;100973.09;1049554;28;20294;-85
2022/07/25 00:01:51;;;;;;;5.47;4.40;;;;;;;18.83;94.69;100970.91;1053177;28;20043;-85
2022/07/25 00:02:23;;;;;;;4.70;4.10;;;;;;;18.86;94.27;100974.16;1053879;28;20042;-85
2022/07/25 00:02:54;;;;;;;5.60;5.07;;;;;;;18.87;94.21;100975.78;1052027;28;20048;-85
2022/07/25 00:03:26;;;;;;;6.22;4.05;;;;;;;18.88;94.01;100972.00;1050054;28;20356;-85
2022/07/25 00:03:59;;;;;;;4.57;4.18;;;;;;;18.83;94.37;100968.22;1052361;28;20248;-84
2022/07/25 00:04:33;;;;;;;5.78;4.25;;;;;;;18.84;94.64;100969.84;1056041;28;20039;-84
2022/07/25 00:05:06;;;;;;;4.10;3.70;;;;;;;18.88;94.52;100967.41;1053147;28;20059;-84
2022/07/25 00:05:38;;;;;;;4.95;4.55;;;;;;;18.80;94.88;100966.06;1056424;28;20050;-84
2022/07/25 00:06:09;;;;;;;7.55;4.30;;;;;;;18.84;94.77;100961.75;1051607;28;20087;-84
2022/07/25 00:06:48;;;;;;;8.35;4.20;;;;;;;18.80;94.55;100963.38;1053721;28;20440;-84
2022/07/25 00:07:19;;;;;;;4.32;4.03;;;;;;;18.71;94.59;100970.38;1051663;28;20504;-84
2022/07/25 00:07:51;;;;;;;5.35;3.92;;;;;;;18.76;94.88;100962.28;1049548;28;20041;-84
2022/07/25 00:08:23;;;;;;;4.28;3.88;;;;;;;18.86;94.51;100958.78;1047867;28;20036;-84
2022/07/25 00:08:54;;;;;;;4.70;4.22;;;;;;;18.93;94.44;100966.63;1052407;28;20028;-84
2022/07/25 00:09:26;;;;;;;8.70;4.57;;;;;;;18.98;94.09;100962.03;1056356;28;20035;-84
2022/07/25 00:09:58;;;;;;;4.57;3.97;;;;;;;18.96;94.12;100963.41;1052137;28;20050;-84
2022/07/25 00:10:29;;;;;;;4.60;4.20;;;;;;;18.96;93.71;100963.41;1051311;28;20131;-84
2022/07/25 00:11:01;;;;;;;4.13;3.72;;;;;;;18.88;93.92;100964.72;1044380;28;20048;-84
2022/07/25 00:11:32;;;;;;;4.55;4.03;;;;;;;18.76;94.25;100964.97;1048160;28;20040;-84
2022/07/25 00:12:05;;;;;;;4.78;4.00;;;;;;;18.72;94.28;100969.28;1052099;28;20453;-84
2022/07/25 00:12:37;;;;;;;4.80;4.30;;;;;;;18.69;94.27;100969.84;1056282;28;20047;-84
2022/07/25 00:13:09;;;;;;;8.05;4.47;;;;;;;18.68;94.80;100964.72;1051291;28;20036;-84
2022/07/25 00:13:41;;;;;;;4.78;4.38;;;;;;;18.62;94.40;100971.94;1047752;28;20052;-84
2022/07/25 00:14:13;;;;;;;5.30;4.80;;;;;;;18.67;94.76;100972.00;1047928;28;20040;-84
2022/07/25 00:14:44;;;;;;;6.50;4.60;;;;;;;18.70;94.78;100960.66;1041854;28;20107;-84
2022/07/25 00:15:16;;;;;;;5.15;4.72;;;;;;;18.74;94.73;100959.03;1047598;28;20049;-84
2022/07/25 00:15:48;;;;;;;5.18;4.78;;;;;;;18.76;94.90;100959.59;1052118;28;20059;-84
2022/07/25 00:16:19;;;;;;;7.07;4.75;;;;;;;18.68;94.66;100962.81;1051745;28;20047;-84
2022/07/25 00:16:51;;;;;;;5.05;4.65;;;;;;;18.67;94.43;100953.09;1047940;28;20045;-84
2022/07/25 00:17:22;;;;;;;6.25;4.75;;;;;;;18.69;94.82;100952.84;1043797;28;20506;-84
2022/07/25 00:17:54;;;;;;;5.97;4.82;;;;;;;18.75;94.94;100951.75;1043665;28;20387;-84
2022/07/25 00:18:25;;;;;;;6.82;5.65;;;;;;;18.77;95.03;100955.81;1039858;28;20057;-84
2022/07/25 00:18:57;;;;;;;5.55;5.07;;;;;;;18.77;95.13;100955.81;1040713;28;20043;-84
2022/07/25 00:19:29;;;;;;;5.15;4.55;;;;;;;18.61;94.52;100961.41;1043525;28;20540;-84
2022/07/25 00:20:01;;;;;;;4.93;4.50;;;;;;;18.62;94.62;100957.63;1043352;28;20033;-84
2022/07/25 00:20:33;;;;;;;5.30;4.80;;;;;;;18.62;95.22;100955.78;1040338;28;20041;-84
2022/07/25 00:21:04;;;;;;;6.38;4.18;;;;;;;18.67;95.40;100955.81;1040461;28;20053;-84
2022/07/25 00:21:36;;;;;;;4.88;4.47;;;;;;;18.65;95.27;100962.53;1043522;28;20052;-84
2022/07/25 00:22:08;;;;;;;6.38;4.60;;;;;;;18.60;95.50;100960.59;1044444;28;20407;-84
2022/07/25 00:22:39;;;;;;;4.93;4.53;;;;;;;18.56;95.67;100954.09;1049882;28;20041;-84
2022/07/25 00:23:11;;;;;;;5.32;4.32;;;;;;;18.51;95.25;100956.81;1055989;28;20043;-84
2022/07/25 00:23:42;;;;;;;5.43;4.97;;;;;;;18.46;95.16;100943.31;1056288;28;20047;-84
2022/07/25 00:24:15;;;;;;;6.22;4.75;;;;;;;18.42;95.41;100948.44;1047817;28;20036;-84
2022/07/25 00:24:46;;;;;;;5.13;4.65;;;;;;;18.43;95.81;100951.94;1047678;28;20052;-83
2022/07/25 00:25:18;;;;;;;6.07;4.15;;;;;;;18.42;95.20;100948.44;1046622;28;20499;-84
2022/07/25 00:25:49;;;;;;;4.85;3.83;;;;;;;18.41;95.63;100946.00;1051397;28;20039;-84
2022/07/25 00:26:21;;;;;;;4.97;4.57;;;;;;;18.42;95.15;100942.22;1051154;28;20048;-84
2022/07/25 00:26:53;;;;;;;4.97;4.50;;;;;;;18.42;95.72;100939.53;1044191;28;20059;-83
2022/07/25 00:27:25;;;;;;;4.97;4.47;;;;;;;18.44;95.88;100940.06;1050666;28;20367;-84
2022/07/25 00:27:57;;;;;;;5.00;4.57;;;;;;;18.46;95.56;100940.59;1047523;28;20045;-84
2022/07/25 00:28:28;;;;;;;12.38;5.30;;;;;;;18.47;95.49;100937.63;1044449;28;20096;-84
2022/07/25 00:29:00;;;;;;;4.45;4.15;;;;;;;18.45;95.20;100941.69;1045289;28;20526;-84
2022/07/25 00:29:31;;;;;;;5.05;4.57;;;;;;;18.42;95.15;100939.53;1043361;28;20435;-84
2022/07/25 00:30:05;;;;;;;4.20;3.90;;;;;;;18.41;95.60;100940.59;1043939;28;20108;-84
2022/07/25 00:30:36;;;;;;;5.40;4.90;;;;;;;18.41;95.79;100935.22;1043746;28;20453;-84
2022/07/25 00:31:08;;;;;;;9.23;5.65;;;;;;;18.42;96.37;100942.22;1039620;28;20048;-84
2022/07/25 00:31:39;;;;;;;8.30;4.80;;;;;;;18.29;96.21;100935.44;1040945;28;20052;-84
2022/07/25 00:32:11;;;;;;;5.47;4.70;;;;;;;18.17;96.71;100941.06;1050725;28;20049;-84
2022/07/25 00:32:43;;;;;;;8.40;5.03;;;;;;;18.16;97.02;100944.03;1043629;28;20041;-84
2022/07/25 00:33:14;;;;;;;10.98;4.43;;;;;;;18.13;97.33;100944.56;1039730;28;20053;-84
2022/07/25 00:33:46;;;;;;;4.75;4.18;;;;;;;18.03;97.50;100939.91;1043929;28;20041;-84
2022/07/25 00:34:18;;;;;;;4.82;4.10;;;;;;;18.14;97.72;100930.81;1044501;28;20045;-84
2022/07/25 00:34:49;;;;;;;5.00;4.60;;;;;;;18.15;97.98;100937.81;1054524;28;20051;-84
2022/07/25 00:35:21;;;;;;;5.85;5.35;;;;;;;18.14;97.92;100932.69;1052022;28;20043;-84
2022/07/25 00:35:52;;;;;;;7.65;4.85;;;;;;;18.08;97.83;100929.16;1046805;28;20088;-84
2022/07/25 00:36:24;;;;;;;5.32;4.88;;;;;;;18.03;97.60;100931.81;1043201;28;20052;-84
2022/07/25 00:36:56;;;;;;;5.10;4.65;;;;;;;17.99;98.30;100932.63;1041611;28;20049;-84
2022/07/25 00:37:27;;;;;;;5.57;5.07;;;;;;;18.03;97.94;100931.00;1050856;28;20178;-84
2022/07/25 00:37:59;;;;;;;10.02;5.57;;;;;;;18.10;98.14;100937.81;1052245;28;20411;-85
2022/07/25 00:38:30;;;;;;;5.00;4.50;;;;;;;18.15;98.34;100934.31;1044342;28;20475;-84
2022/07/25 00:39:03;;;;;;;4.90;4.53;;;;;;;18.23;97.94;100936.50;1047429;28;20486;-84
2022/07/25 00:39:34;;;;;;;6.40;5.85;;;;;;;18.26;97.90;100927.06;1043650;28;20041;-83
2022/07/25 00:40:07;;;;;;;5.68;5.07;;;;;;;18.27;97.42;100931.38;1039912;28;20041;-84
2022/07/25 00:40:39;;;;;;;5.50;5.10;;;;;;;18.23;97.67;100931.91;1040165;28;20045;-84
2022/07/25 00:41:11;;;;;;;5.95;5.45;;;;;;;18.23;97.31;100934.59;1042538;28;20040;-84
2022/07/25 00:41:43;;;;;;;6.88;5.20;;;;;;;18.30;97.58;100928.94;1048162;28;20499;-84
2022/07/25 00:42:14;;;;;;;6.43;4.95;;;;;;;18.35;97.39;100926.28;1044029;28;20037;-84
2022/07/25 00:42:46;;;;;;;8.52;5.30;;;;;;;18.25;97.38;100925.44;1043569;28;20052;-84
2022/07/25 00:43:18;;;;;;;5.18;4.72;;;;;;;18.22;97.89;100921.38;1041895;28;20056;-84
2022/07/25 00:43:50;;;;;;;6.50;4.25;;;;;;;18.11;97.74;100931.34;1040458;28;20045;-84
2022/07/25 00:44:29;;;;;;;5.65;4.75;;;;;;;18.13;98.48;100925.69;1043802;28;20056;-84
2022/07/25 00:45:01;;;;;;;5.93;5.15;;;;;;;18.14;98.49;100925.41;1052384;28;20405;-84
2022/07/25 00:45:32;;;;;;;6.47;5.03;;;;;;;18.16;98.67;100917.88;1047405;28;20075;-84
2022/07/25 00:46:04;;;;;;;8.25;4.90;;;;;;;18.17;99.14;100922.19;1047855;28;20569;-84
2022/07/25 00:46:39;;;;;;;4.68;4.28;;;;;;;18.07;98.45;100922.13;1050411;28;20044;-84
2022/07/25 00:47:11;;;;;;;6.78;4.25;;;;;;;18.06;98.60;100915.13;1044302;28;20037;-84
2022/07/25 00:47:43;;;;;;;8.75;4.93;;;;;;;18.12;99.06;100919.47;1048850;28;20053;-84
2022/07/25 00:48:15;;;;;;;4.57;4.18;;;;;;;18.02;98.82;100921.31;1054498;28;20043;-84
2022/07/25 00:48:46;;;;;;;5.63;5.13;;;;;;;17.89;99.29;100922.63;1047537;28;21419;-84
2022/07/25 00:49:18;;;;;;;5.35;4.32;;;;;;;17.87;99.43;100919.38;1047983;28;20044;-84
2022/07/25 00:49:50;;;;;;;4.90;4.50;;;;;;;17.88;99.52;100918.28;1046082;28;20111;-84
2022/07/25 00:50:22;;;;;;;8.65;5.18;;;;;;;17.88;99.46;100915.59;1046853;28;20049;-84
2022/07/25 00:50:54;;;;;;;8.75;4.70;;;;;;;17.76;99.97;100913.09;1039699;28;20056;-84
2022/07/25 00:51:26;;;;;;;10.65;4.82;;;;;;;17.80;99.87;100913.38;1039803;28;20045;-84
2022/07/25 00:51:58;;;;;;;6.80;4.40;;;;;;;17.90;100.00;100919.66;1044022;28;20057;-84
2022/07/25 00:52:29;;;;;;;5.55;5.05;;;;;;;17.95;100.00;100910.78;1044976;28;20043;-83
2022/07/25 00:53:01;;;;;;;5.53;5.03;;;;;;;18.02;100.00;100916.72;1051107;28;20043;-84
2022/07/25 00:53:33;;;;;;;6.78;4.78;;;;;;;18.08;99.93;100914.84;1051383;28;20150;-84
2022/07/25 00:54:05;;;;;;;5.03;4.63;;;;;;;18.11;99.93;100925.94;1048481;28;20174;-84
2022/07/25 00:54:37;;;;;;;4.97;4.57;;;;;;;18.14;99.69;100909.25;1047582;28;20040;-84
2022/07/25 00:55:09;;;;;;;5.13;4.70;;;;;;;18.20;99.45;100921.66;1044077;28;20056;-84
2022/07/25 00:55:41;;;;;;;5.88;5.38;;;;;;;18.15;99.06;100916.25;1048325;28;20033;-84
2022/07/25 00:56:14;;;;;;;5.00;4.57;;;;;;;18.11;98.71;100920.56;1048083;28;20081;-84
2022/07/25 00:56:46;;;;;;;5.32;4.70;;;;;;;18.13;98.77;100918.41;1045213;28;20141;-84
2022/07/25 00:57:18;;;;;;;5.18;4.78;;;;;;;18.13;98.59;100915.72;1050399;28;20068;-84
2022/07/25 00:57:50;;;;;;;5.32;4.93;;;;;;;18.16;98.77;100907.09;1048654;28;20044;-83
2022/07/25 00:58:21;;;;;;;5.43;4.90;;;;;;;18.14;98.56;100908.44;1045452;28;20040;-84
2022/07/25 00:58:53;;;;;;;5.70;5.25;;;;;;;18.09;98.34;100905.72;1052150;28;20046;-84
2022/07/25 00:59:25;;;;;;;5.47;4.95;;;;;;;18.09;98.13;100909.22;1050940;28;20087;-84
2022/07/25 00:59:57;;;;;;;6.38;5.13;;;;;;;18.11;98.05;100899.00;1050465;28;20138;-84
2022/07/25 01:00:28;;;;;;;5.13;4.72;;;;;;;18.12;97.95;100906.00;1049515;28;20115;-84
2022/07/25 01:01:02;;;;;;;5.47;4.97;;;;;;;18.04;97.59;100909.19;1048421;28;20111;-83
2022/07/25 01:01:35;;;;;;;5.40;5.00;;;;;;;18.02;97.35;100905.94;1043262;28;20045;-84
2022/07/25 01:02:06;;;;;;;6.97;6.22;;;;;;;18.06;97.16;100903.53;1039279;28;20048;-84
2022/07/25 01:02:39;;;;;;;5.55;4.80;;;;;;;18.06;97.28;100898.94;1038309;28;20515;-84
2022/07/25 01:03:11;;;;;;;5.97;5.18;;;;;;;18.03;97.40;100898.66;1039480;28;20588;-83
2022/07/25 01:03:42;;;;;;;5.70;5.20;;;;;;;17.92;97.67;100897.81;1043191;28;20044;-84
2022/07/25 01:04:15;;;;;;;7.97;5.35;;;;;;;17.78;97.77;100904.75;1048241;28;20040;-84
2022/07/25 01:04:47;;;;;;;5.50;5.00;;;;;;;17.80;98.15;100905.31;1041828;28;20041;-84
2022/07/25 01:05:18;;;;;;;4.85;4.43;;;;;;;17.79;98.14;100901.00;1046773;28;20048;-83
2022/07/25 01:05:50;;;;;;;6.03;4.28;;;;;;;17.78;98.00;100902.06;1051905;28;20040;-84
2022/07/25 01:06:25;;;;;;;4.90;4.38;;;;;;;17.70;98.33;100902.56;1042593;28;20048;-84
2022/07/25 01:06:57;;;;;;;5.32;4.40;;;;;;;17.67;98.29;100903.06;1040149;28;20053;-83
2022/07/25 01:07:29;;;;;;;5.18;4.28;;;;;;;17.60;98.43;100898.72;1042580;28;20048;-84
2022/07/25 01:08:01;;;;;;;6.13;3.95;;;;;;;17.60;98.50;100898.72;1049994;28;20494;-83
2022/07/25 01:08:33;;;;;;;6.15;5.55;;;;;;;17.57;98.77;100893.88;1052467;28;20047;-84
2022/07/25 01:09:04;;;;;;;4.88;4.28;;;;;;;17.54;98.83;100893.59;1051573;28;20040;-84
2022/07/25 01:09:36;;;;;;;5.13;4.47;;;;;;;17.51;98.88;100889.50;1046974;28;20044;-84
2022/07/25 01:10:09;;;;;;;4.40;4.00;;;;;;;17.49;99.03;100897.03;1041853;28;20088;-83
2022/07/25 01:10:40;;;;;;;5.07;4.68;;;;;;;17.56;99.34;100889.56;1040317;28;20055;-84
2022/07/25 01:11:12;;;;;;;5.15;4.63;;;;;;;17.60;99.70;100893.34;1046500;28;20063;-84
2022/07/25 01:11:44;;;;;;;4.97;4.55;;;;;;;17.61;99.85;100889.56;1044335;28;20044;-84
2022/07/25 01:12:15;;;;;;;7.50;4.68;;;;;;;17.45;99.67;100893.25;1050998;28;20051;-84
2022/07/25 01:12:51;;;;;;;5.68;4.78;;;;;;;17.41;100.00;100884.06;1047322;28;21465;-84
2022/07/25 01:13:23;;;;;;;6.35;4.47;;;;;;;17.45;100.00;100889.75;1043239;28;20042;-84
2022/07/25 01:13:54;;;;;;;5.15;4.65;;;;;;;17.47;100.00;100888.41;1036999;28;20492;-84
2022/07/25 01:14:26;;;;;;;5.40;5.00;;;;;;;17.45;100.00;100881.66;1041070;28;20479;-84
2022/07/25 01:14:58;;;;;;;5.03;4.60;;;;;;;17.43;100.00;100887.31;1048419;28;20082;-84
2022/07/25 01:15:29;;;;;;;6.20;4.38;;;;;;;17.45;100.00;100887.03;1053764;28;20059;-84
2022/07/25 01:16:01;;;;;;;4.93;4.57;;;;;;;17.46;100.00;100880.59;1052395;28;20055;-84
2022/07/25 01:16:33;;;;;;;5.28;4.72;;;;;;;17.53;100.00;100890.06;1045926;28;20183;-84
2022/07/25 01:17:05;;;;;;;4.97;4.47;;;;;;;17.61;100.00;100886.06;1043836;28;20048;-84
2022/07/25 01:17:36;;;;;;;5.10;4.70;;;;;;;17.60;100.00;100882.56;1040402;28;20052;-84
2022/07/25 01:18:08;;;;;;;5.80;5.30;;;;;;;17.73;100.00;100889.38;1043958;28;20126;-84
2022/07/25 01:18:39;;;;;;;7.15;6.32;;;;;;;17.72;100.00;100884.25;1048172;28;20043;-83
2022/07/25 01:19:11;;;;;;;5.57;5.07;;;;;;;17.49;100.00;100875.47;1043675;28;20570;-84
2022/07/25 01:19:42;;;;;;;6.07;5.05;;;;;;;17.36;100.00;100880.53;1043559;28;20494;-84
2022/07/25 01:20:18;;;;;;;5.95;5.40;;;;;;;17.42;100.00;100874.91;1047797;28;20036;-83
2022/07/25 01:20:49;;;;;;;5.75;5.35;;;;;;;17.47;100.00;100880.31;1041963;28;20060;-84
2022/07/25 01:21:23;;;;;;;5.60;5.13;;;;;;;17.55;100.00;100877.16;1043760;28;20045;-83
2022/07/25 01:21:55;;;;;;;8.93;5.72;;;;;;;17.58;100.00;100873.94;1041562;28;20042;-84
2022/07/25 01:22:26;;;;;;;5.82;5.22;;;;;;;17.64;100.00;100876.66;1044247;28;20434;-84
2022/07/25 01:22:59;;;;;;;6.10;5.57;;;;;;;17.66;100.00;100872.63;1041495;28;20511;-84
2022/07/25 01:23:30;;;;;;;6.53;5.78;;;;;;;17.66;100.00;100874.50;1045592;28;20055;-84
2022/07/25 01:24:02;;;;;;;6.10;5.60;;;;;;;17.71;100.00;100869.97;1043308;28;20037;-83
2022/07/25 01:24:34;;;;;;;6.68;6.05;;;;;;;17.73;99.82;100867.03;1037424;28;20072;-84
2022/07/25 01:25:06;;;;;;;6.32;5.80;;;;;;;17.68;99.82;100873.19;1040498;28;20037;-84
2022/07/25 01:25:38;;;;;;;6.63;6.05;;;;;;;17.63;99.61;100869.66;1044471;28;20063;-84
2022/07/25 01:26:10;;;;;;;6.13;5.60;;;;;;;17.47;99.61;100866.84;1049600;28;20052;-84
2022/07/25 01:26:41;;;;;;;5.32;4.93;;;;;;;17.47;99.65;100866.84;1055231;28;20045;-84
2022/07/25 01:27:13;;;;;;;6.75;6.15;;;;;;;17.45;99.61;100869.00;1047878;28;20051;-84
2022/07/25 01:27:49;;;;;;;6.65;5.72;;;;;;;17.43;100.00;100864.94;1047555;28;20047;-84
2022/07/25 01:28:26;;;;;;;7.60;5.25;;;;;;;17.38;100.00;100862.25;1047281;28;20044;-84
2022/07/25 01:28:58;;;;;;;9.23;5.45;;;;;;;17.38;100.00;100857.66;1051611;28;20094;-84
2022/07/25 01:29:30;;;;;;;5.82;5.22;;;;;;;17.44;100.00;100866.56;1050683;28;20052;-84
2022/07/25 01:30:03;;;;;;;7.35;6.70;;;;;;;17.39;100.00;100864.66;1049008;28;20044;-84
2022/07/25 01:30:35;;;;;;;8.45;6.00;;;;;;;17.36;100.00;100859.81;1051748;28;20036;-84
2022/07/25 01:31:06;;;;;;;6.95;5.45;;;;;;;17.34;100.00;100858.44;1047399;28;20043;-84
2022/07/25 01:31:38;;;;;;;6.15;5.55;;;;;;;17.32;100.00;100856.03;1048657;28;20051;-84
2022/07/25 01:32:11;;;;;;;6.63;6.03;;;;;;;17.24;100.00;100861.88;1047292;28;20064;-84
2022/07/25 01:32:43;;;;;;;6.43;5.82;;;;;;;17.24;100.00;100861.88;1052601;27;20067;-84
2022/07/25 01:33:16;;;;;;;6.28;5.72;;;;;;;17.22;100.00;100856.75;1056126;28;20405;-84
2022/07/25 01:33:48;;;;;;;9.50;6.53;;;;;;;17.18;100.00;100852.16;1056023;28;20054;-84
2022/07/25 01:34:19;;;;;;;20.30;6.80;;;;;;;17.26;100.00;100857.06;1050830;28;20047;-84
2022/07/25 01:34:51;;;;;;;24.77;7.45;;;;;;;17.30;100.00;100858.16;1051737;28;20491;-84
2022/07/25 01:35:22;;;;;;;15.80;6.72;;;;;;;17.29;100.00;100854.66;1050198;28;20036;-84
2022/07/25 01:35:54;;;;;;;31.08;7.57;;;;;;;17.30;100.00;100860.84;1051320;28;20509;-84
2022/07/25 01:36:26;;;;;;;21.65;6.78;;;;;;;17.32;100.00;100857.91;1056281;28;20035;-84
2022/07/25 01:36:57;;;;;;;14.52;7.13;;;;;;;17.30;100.00;100855.47;1056156;28;20052;-84
2022/07/25 01:37:29;;;;;;;14.85;7.15;;;;;;;17.30;100.00;100850.09;1055198;28;20035;-84
2022/07/25 01:38:00;;;;;;;12.07;6.43;;;;;;;17.33;100.00;100854.94;1053910;28;20035;-84
2022/07/25 01:38:32;;;;;;;10.68;6.57;;;;;;;17.32;100.00;100857.91;1055793;28;20044;-84
2022/07/25 01:39:03;;;;;;;18.73;6.45;;;;;;;17.33;100.00;100854.13;1052482;28;20411;-84
2022/07/25 01:39:35;;;;;;;15.43;6.95;;;;;;;17.30;100.00;100850.91;1054407;28;20036;-84
2022/07/25 01:40:07;;;;;;;11.95;6.38;;;;;;;17.37;100.00;100860.63;1051969;28;20565;-84
2022/07/25 01:40:42;;;;;;;7.60;6.82;;;;;;;17.43;100.00;100855.00;1054855;28;20036;-84
2022/07/25 01:41:13;;;;;;;9.85;6.45;;;;;;;17.39;100.00;100859.28;1056003;28;20375;-84
2022/07/25 01:41:53;;;;;;;9.90;6.28;;;;;;;17.29;100.00;100849.28;1055156;28;20089;-84
2022/07/25 01:42:25;;;;;;;7.55;6.28;;;;;;;17.27;100.00;100861.38;1051974;28;20406;-84
2022/07/25 01:42:56;;;;;;;13.50;6.88;;;;;;;17.24;100.00;100853.78;1050394;28;20036;-84
2022/07/25 01:43:28;;;;;;;8.77;6.47;;;;;;;17.17;100.00;100850.53;1048369;28;20091;-84
2022/07/25 01:43:59;;;;;;;8.10;6.60;;;;;;;17.14;100.00;100857.25;1045829;28;20044;-84
2022/07/25 01:44:31;;;;;;;9.25;6.78;;;;;;;17.13;100.00;100854.81;1043588;28;20053;-84
2022/07/25 01:45:03;;;;;;;10.75;6.68;;;;;;;17.11;100.00;100856.94;1042002;28;20037;-84
2022/07/25 01:45:35;;;;;;;9.90;7.57;;;;;;;17.16;100.00;100854.28;1039687;28;20041;-84
2022/07/25 01:46:07;;;;;;;6.93;6.18;;;;;;;17.20;100.00;100850.00;1037314;28;20511;-84
2022/07/25 01:46:38;;;;;;;7.93;7.18;;;;;;;17.21;100.00;100857.00;1038439;28;20050;-84
2022/07/25 01:47:10;;;;;;;6.68;6.10;;;;;;;17.15;100.00;100847.28;1045875;28;20045;-84
2022/07/25 01:47:42;;;;;;;9.25;7.35;;;;;;;17.13;100.00;100855.63;1046160;28;20453;-84
2022/07/25 01:48:13;;;;;;;9.35;6.93;;;;;;;17.08;100.00;100844.81;1047361;28;20036;-84
2022/07/25 01:48:47;;;;;;;6.78;6.07;;;;;;;17.12;100.00;100853.19;1047927;28;20401;-84
2022/07/25 01:49:19;;;;;;;7.90;7.07;;;;;;;17.14;100.00;100848.34;1048542;28;20055;-84
2022/07/25 01:49:51;;;;;;;7.88;6.28;;;;;;;17.16;100.00;100848.91;1051514;28;20058;-84
2022/07/25 01:50:23;;;;;;;8.00;7.30;;;;;;;17.06;100.00;100848.84;1047400;28;20041;-85
2022/07/25 01:50:54;;;;;;;8.60;7.78;;;;;;;17.08;100.00;100846.72;1044243;28;20049;-84
2022/07/25 01:51:27;;;;;;;9.25;7.00;;;;;;;17.09;100.00;100848.31;1043342;28;20037;-84
2022/07/25 01:51:59;;;;;;;9.77;7.47;;;;;;;17.05;100.00;100855.31;1045935;28;20127;-84
2022/07/25 01:52:31;;;;;;;7.63;6.93;;;;;;;16.98;100.00;100840.19;1049188;28;20057;-84
2022/07/25 01:53:04;;;;;;;8.45;7.65;;;;;;;17.03;100.00;100854.75;1051482;28;20048;-84
2022/07/25 01:53:35;;;;;;;7.72;7.13;;;;;;;17.03;100.00;100844.00;1049043;28;20040;-84
2022/07/25 01:54:07;;;;;;;11.30;7.63;;;;;;;17.01;100.00;100852.31;1052027;28;20043;-84
2022/07/25 01:54:41;;;;;;;7.40;6.70;;;;;;;17.04;100.00;100842.91;1051845;28;20066;-84
2022/07/25 01:55:14;;;;;;;7.25;6.55;;;;;;;17.01;100.00;100840.75;1051189;28;20044;-84
2022/07/25 01:55:45;;;;;;;8.13;7.32;;;;;;;17.01;100.00;100843.44;1047379;28;20052;-84
2022/07/25 01:56:18;;;;;;;7.55;6.90;;;;;;;17.03;100.00;100849.38;1039268;28;20412;-84
2022/07/25 01:56:52;;;;;;;7.72;7.05;;;;;;;16.98;100.00;100832.13;1046531;28;20072;-84
2022/07/25 01:57:24;;;;;;;8.70;7.35;;;;;;;16.97;100.00;100846.63;1049294;28;20040;-84
2022/07/25 01:58:01;;;;;;;8.45;7.57;;;;;;;16.96;100.00;100841.50;1058308;27;20040;-84
2022/07/25 01:58:33;;;;;;;8.57;7.88;;;;;;;16.99;100.00;100841.81;1058744;28;20043;-84
2022/07/25 01:59:05;;;;;;;8.77;7.80;;;;;;;17.02;100.00;100839.69;1051457;28;20118;-84
2022/07/25 01:59:40;;;;;;;8.68;7.55;;;;;;;17.06;100.00;100838.09;1052034;28;20040;-84
2022/07/25 02:00:13;;;;;;;8.88;7.65;;;;;;;16.97;100.00;100832.34;1050155;28;20552;-84
2022/07/25 02:00:45;;;;;;;13.35;8.48;;;;;;;16.95;100.00;100834.50;1048890;28;20413;-84
2022/07/25 02:01:17;;;;;;;8.70;7.22;;;;;;;16.97;100.00;100835.84;1047126;28;20037;-84
2022/07/25 02:01:52;;;;;;;9.00;8.10;;;;;;;17.03;100.00;100833.22;1043737;28;20462;-84
2022/07/25 02:02:24;;;;;;;8.95;8.13;;;;;;;16.95;100.00;100831.81;1051356;28;20049;-84
2022/07/25 02:03:46;;;;;;;8.45;7.60;;;;;;;17.11;100.00;100830.84;1054220;28;20044;-84
2022/07/25 02:04:18;;;;;;;12.13;8.02;;;;;;;17.13;100.00;100834.09;1048385;28;20298;-84
2022/07/25 02:04:49;;;;;;;9.57;8.68;;;;;;;17.02;100.00;100834.28;1051458;28;20475;-84
2022/07/25 02:05:21;;;;;;;11.38;9.52;;;;;;;17.12;100.00;100835.16;1050656;28;20464;-84
2022/07/25 02:05:53;;;;;;;9.43;8.45;;;;;;;17.08;100.00;100830.56;1043308;28;20053;-84
2022/07/25 02:06:24;;;;;;;9.98;8.05;;;;;;;17.03;100.00;100830.53;1045930;28;20545;-84
2022/07/25 02:06:56;;;;;;;8.15;7.45;;;;;;;17.11;100.00;100827.34;1050110;28;20425;-84
2022/07/25 02:07:27;;;;;;;8.10;7.40;;;;;;;17.27;100.00;100831.75;1041925;28;20111;-84
2022/07/25 02:07:59;;;;;;;9.70;8.63;;;;;;;17.25;100.00;100828.50;1044144;28;20045;-84
2022/07/25 02:08:31;;;;;;;9.48;8.55;;;;;;;17.17;100.00;100831.69;1050009;28;20044;-84
2022/07/25 02:09:03;;;;;;;9.80;8.77;;;;;;;17.12;100.00;100828.97;1043636;28;20122;-84
2022/07/25 02:09:35;;;;;;;9.50;8.52;;;;;;;17.14;100.00;100824.13;1044138;28;20044;-84
2022/07/25 02:10:07;;;;;;;9.57;8.63;;;;;;;17.15;100.00;100823.06;1050875;28;20048;-84
2022/07/25 02:10:39;;;;;;;9.32;8.43;;;;;;;17.10;100.00;100829.22;1043802;28;20052;-84
2022/07/25 02:11:10;;;;;;;8.70;7.95;;;;;;;17.11;100.00;100827.34;1043856;28;20045;-84
2022/07/25 02:11:42;;;;;;;9.80;8.80;;;;;;;17.09;100.00;100824.09;1037741;28;20045;-84
2022/07/25 02:12:13;;;;;;;8.07;7.28;;;;;;;17.23;100.00;100833.34;1038840;28;20040;-84
2022/07/25 02:12:45;;;;;;;9.25;8.35;;;;;;;17.17;100.00;100821.72;1044032;28;20048;-84
2022/07/25 02:13:18;;;;;;;10.23;9.23;;;;;;;17.18;100.00;100820.66;1040113;28;20053;-84
2022/07/25 02:13:50;;;;;;;9.32;8.60;;;;;;;17.15;100.00;100829.25;1043959;28;20415;-84
2022/07/25 02:14:22;;;;;;;10.65;9.65;;;;;;;17.26;100.00;100822.88;1041844;28;20044;-84
2022/07/25 02:14:53;;;;;;;9.77;8.77;;;;;;;17.34;100.00;100828.84;1052243;28;20059;-84
2022/07/25 02:15:25;;;;;;;10.18;9.18;;;;;;;17.26;100.00;100827.44;1048830;28;20044;-84
2022/07/25 02:15:56;;;;;;;9.93;9.02;;;;;;;17.14;100.00;100821.44;1054033;28;20635;-83
2022/07/25 02:16:28;;;;;;;9.75;8.85;;;;;;;17.23;100.00;100825.25;1055399;28;20040;-84
2022/07/25 02:17:00;;;;;;;9.85;9.02;;;;;;;17.37;100.00;100821.03;1055852;28;20073;-84
2022/07/25 02:17:31;;;;;;;9.98;9.07;;;;;;;17.44;99.81;100827.00;1055833;28;20051;-84
2022/07/25 02:18:03;;;;;;;12.57;9.98;;;;;;;17.49;99.16;100827.00;1053898;28;20036;-84
2022/07/25 02:18:35;;;;;;;14.15;10.20;;;;;;;17.48;99.38;100825.38;1051369;28;20044;-84
2022/07/25 02:19:07;;;;;;;10.35;9.45;;;;;;;17.53;99.04;100828.13;1050453;28;20044;-84
2022/07/25 02:19:38;;;;;;;10.88;9.80;;;;;;;17.54;99.01;100824.38;1055897;28;20035;-84
2022/07/25 02:20:10;;;;;;;10.07;9.18;;;;;;;17.40;98.74;100817.81;1054836;28;20046;-84
2022/07/25 02:20:42;;;;;;;11.27;10.07;;;;;;;17.30;99.27;100823.16;1051865;28;20115;-84
2022/07/25 02:21:14;;;;;;;11.68;10.50;;;;;;;17.30;99.13;100817.78;1050636;28;20040;-84
2022/07/25 02:21:45;;;;;;;11.20;10.05;;;;;;;17.49;98.73;100813.53;1050915;28;20036;-84
2022/07/25 02:22:17;;;;;;;11.52;10.35;;;;;;;17.60;98.36;100823.31;1047714;28;20037;-84
2022/07/25 02:22:48;;;;;;;11.27;10.13;;;;;;;17.68;97.66;100823.91;1043173;28;20041;-84
2022/07/25 02:23:20;;;;;;;11.93;10.82;;;;;;;17.75;96.92;100819.06;1043709;28;20048;-84
2022/07/25 02:23:52;;;;;;;11.45;10.35;;;;;;;17.82;96.41;100815.06;1049621;28;20040;-84
2022/07/25 02:24:23;;;;;;;11.07;9.88;;;;;;;17.89;96.05;100814.81;1048155;28;20041;-84
2022/07/25 02:24:55;;;;;;;17.83;11.52;;;;;;;17.92;95.44;100814.28;1055691;28;20036;-84
2022/07/25 02:25:26;;;;;;;11.70;10.40;;;;;;;17.86;95.65;100813.47;1055809;28;20040;-84
2022/07/25 02:25:58;;;;;;;11.93;10.38;;;;;;;17.66;95.72;100816.06;1050674;28;20429;-84
2022/07/25 02:26:30;;;;;;;11.93;9.43;;;;;;;17.67;96.13;100811.47;1040665;28;20045;-84
2022/07/25 02:27:02;;;;;;;10.57;9.68;;;;;;;17.74;95.84;100812.06;1041909;28;20052;-84
2022/07/25 02:27:34;;;;;;;11.90;9.55;;;;;;;17.79;95.76;100812.06;1043702;28;20033;-84
2022/07/25 02:28:05;;;;;;;11.35;9.98;;;;;;;17.78;95.56;100818.53;1047896;28;20052;-84
2022/07/25 02:28:40;;;;;;;11.27;9.60;;;;;;;17.81;95.42;100812.66;1048423;28;20053;-84
2022/07/25 02:29:12;;;;;;;14.88;10.27;;;;;;;17.83;95.63;100816.69;1048741;28;20036;-84